Avoca, IA (51521)

12:47 CDT le 01 avril 2015 (GMT -0500)
IADOT | | Change Station
CLOSE
Current Station
Stations météorologiques personnelles
Location: Avoca, IA
Altitude: 1240 ft
Stations météo à proximité
Avis météorologiques actifs: Wind Advisory

Alt. 1240 ft 41.50 °N, 95.29 °W | Updated 27 minutes ago

Ciel dégagé
Ciel dégagé
78 ° F
Paraît 78 ° F
N
26
Vent Variable Vent de Sud
Gusts 32.0 mph

Aujourd'hui
Haut(e) -- | Bas -- ° F
--% Risque de précip.
Hier
Haut(e) -- | Bas -- ° F
Precip. -- pouce
7:04 AM 7:46 PM
Lune gibbeuse croissante, 93% visible
Pression 29.75 pouce
Visibilité 9.0 Miles terrestres
Nuages Ciel dégagé
indice de chaleur 78 ° F
Point de rosée 45 ° F
Humidité 31%
Précipitations pouce
Profondeur de la couche neigeuse Non disponible.
UV 8 sur 12
Pollen 9.20 sur 12
Qualité de l'air Non disponible.
Flu Activity Non disponible.
METAR KHNR 011735Z AUTO 18023G28KT 9SM CLR 25/06 A2975 RMK AO2

More Conditions Fewer Conditions

Pression 29.75 pouce
Visibilité 9.0 Miles terrestres
Nuages Ciel dégagé
indice de chaleur 78 ° F
Point de rosée 45 ° F
Humidité 31%
Précipitations pouce
Profondeur de la couche neigeuse Non disponible.
UV 8 sur 12
Pollen 9.20 sur 12
Qualité de l'air Non disponible.
Flu Activity Non disponible.
METAR KHNR 011735Z AUTO 18023G28KT 9SM CLR 25/06 A2975 RMK AO2

More Conditions Fewer Conditions

10-Day Weather Forecast

Almanac

Astronomie

Apr. 01, 2015 Lever Coucher
Temps réel
Crépuscule civil
Crépuscule nautique
Crépuscule astronomique
Lune
Durée de lumière visible
Longueur du jour
Tomorrow will be .
, % of the Moon is Illuminated

Extrêmes aujourd'hui

State Highs State Lows

Community

WunderPhotos

Upload Photos

1,810,018 Photos téléchargées !

WunderBlogs® & News

Nearby

Qualité de l'air

  Qualité de l'air Indice de la qualité de l'air Polluant
Not available.

Épaisseur de neige

Station Depth Altitude

Activité sismique

Ville Distance Mag. Time & Date
Minimum magnitude displayed is 2.5.

Températures des eaux côtières

Lieu Température

Stations

Stations météo à proximité

Emplacement de la station Température Refroidissement éolien Point de rosée Humidité Vent Precip. Alt. Mise à jour Type
                   
Wind Advisory
Statement as of 12:35 CDT le 01 avril 2015

... Wind Advisory in effect until 6 PM CDT this evening...

The National Weather Service in Omaha/valley has issued a Wind
Advisory... which is in effect until 6 PM CDT this evening.

* Timing... gusty south winds will prevail through the afternoon.

* Winds... south winds 25 to 35 mph with gusts near 45 mph.

Precautionary/preparedness actions...

A Wind Advisory means that sustained wind speeds between 30 to
39 mph or gusts between 45 to 57 mph are expected. Winds this
strong can make driving difficult... especially for high profile
vehicles. Use extra caution.



Fobert